Tecumseh, Nebraska
Current Conditions -  °F | °C
As of 11:35 AM on Wednesday 26 Nov 2014 (Local Time) from KAFK Reporting Station
Overcast Overcast  
Wind Chill: 22°   Ceiling: 1200
Heat Index: 34°   Visibility: 10mi
Dew Point: 28°   Wind: 21mph
Humidity: 80%   Direction: 330°NNW
Pressure: 30.04"   Gusts: 35mph
Location:  40.37°N, 96.2°W
Report Text: KAFK 261735Z AUTO 33018G30KT 10SM OVC012 01/M02 A3004 RMK AO2 T00101021
Loading
Personal Weather Stations






























Interactive Weather Map New forecast layout! Learn more

10-Day Weather Forecast

Advertisements
Track Severe Weather on mobile